PINE FLAT DAM (PNF)

Elevation: 970' · KINGS R basin · Operator: US Army Corps of Engineers

Provisional data, subject to change.
Query executed Wednesday at 2:48:58   clock

Select a sensor type for a plot of data.
Note: Reservoir Flows are daily averages.

Earlier

Date RES ELE    STORAGE    RES CHG    TOC STO    ABV TOC    OUTFLOW    INFLOW    FNF    PPT INC    PPTINC4    TEMP MN    TEMP MX    WINDLEN    EVP PAN   
 FEET   AF   AF   AF   AF   CFS   CFS   CFS   INCHES   INCHES   DEG F   DEG F   MILES   INCHES  
10/27/2014 719.48 112454 -93 789754 -677300 240 201 18 0.00 0.00 -- -- 41 0.10
10/28/2014 719.49 112473 19 781967 -669494 240 257 113 0.00 0.00 -- -- 42 0.11
10/29/2014 719.52 112529 56 774180 -661651 214 251 109 0.00 0.00 -- -- 47 0.11
10/30/2014 719.59 112659 130 766393 -653734 176 250 131 0.00 0.00 -- -- 45 0.12
10/31/2014 719.66 112789 130 758606 -645818 152 226 171 0.40 0.00 -- -- 56 0.11
11/01/2014 719.87 113181 392 750820 -637639 151 352 367 1.34 0.95 -- -- 28 0.04
11/02/2014 720.05 113517 336 -- -- 144 313 300 e 0.00 0.79 -- -- 39 0.08
11/03/2014 720.26 113910 393 735246 -621336 143 347 42 0.00 0.00 -- -- 39 0.08
11/04/2014 720.56 114472 562 727459 -612987 141 430 257 0.01 0.00 -- -- 42 0.08
11/05/2014 720.78 114886 414 719672 -- 141 356 191 0.00 0.00 -- -- 40 0.09
11/06/2014 720.95 115206 320 711885 -596679 141 310 184 0.00 0.00 -- -- 43 0.11
11/07/2014 721.08 115451 245 704098 -588647 141 271 165 0.00 0.00 -- -- 40 0.09
11/08/2014 721.24 115752 301 696311 -580559 141 299 187 0.00 0.00 -- -- 41 0.09
11/09/2014 721.33 115922 170 688524 -572602 141 233 168 0.00 0.00 -- -- 39 0.09
11/10/2014 721.46 116168 246 680738 -- 141 271 99 0.00 0.00 -- -- 38 0.08
11/11/2014 721.65 116528 360 672951 -556423 141 327 86 e 0.00 0.00 -- -- 38 0.06
11/12/2014 721.77 116755 227 665164 -548409 141 260 86 e 0.00 0.00 -- -- 31 0.06
11/13/2014 721.94 117078 323 657377 -540299 140 306 181 0.18 0.00 -- -- 32 0.04
11/14/2014 722.15 117477 399 649590 -532113 140 347 216 0.02 0.18 -- -- 40 0.07
11/15/2014 722.26 117687 210 641803 -524116 141 252 223 0.00 0.00 -- -- 42 0.07
11/16/2014 722.33 117820 133 634016 -516196 141 212 151 0.00 0.00 -- -- 32 0.06
11/17/2014 722.43 118011 191 626229 -508218 108 210 170 0.00 0.00 -- -- 44 0.07
11/18/2014 722.50 118144 133 618442 -500298 105 177 97 0.00 0.00 -- -- 34 0.07
11/19/2014 722.63 118392 248 610656 -492264 108 238 171 0.00 0.00 -- -- 42 0.07
11/20/2014 722.75 118622 230 602869 -484247 141 261 181 0.19 0.00 -- -- 41 0.05
11/21/2014 722.81 118736 -- 595082 -- 141 202 153 0.00 0.19 -- -- 38 0.05
11/22/2014 722.85 118813 -- 587295 -- 141 183 134 0.00 0.00 -- -- 32 0.05
11/23/2014 722.89 118890 -- 579508 -- 141 183 134 0.00 0.03 -- -- 32 0.04
11/24/2014 722.95 119005 115 571721 -452716 141 203 154 0.00 0.00 -- -- 34 0.05
11/25/2014 -- -- -- 563934 -- -- -- -- -- 0.00 -- -- -- --
11/26/2014 -- -- -- -- -- -- -- -- -- -- -- -- -- --

Later | Latest

Warning! This data is preliminary and subject to revision.

Show PNF Map | Plot PNF Data | 1 Month PNF Data | Real-Time PNF Data | PNF Info